createdAt,value
2024-01-11T00:01:57.373Z,82.79
2024-01-11T00:04:06.211Z,82.76
2024-01-11T00:06:15.418Z,82.62
2024-01-11T00:08:24.338Z,82.60
2024-01-11T00:10:32.906Z,82.61
2024-01-11T00:12:41.692Z,82.52
2024-01-11T00:14:50.445Z,82.61
2024-01-11T00:16:59.197Z,82.62
2024-01-11T00:19:08.168Z,82.55
2024-01-11T00:21:16.875Z,82.30
2024-01-11T00:23:25.706Z,82.25
2024-01-11T00:25:34.356Z,82.28
2024-01-11T00:27:43.213Z,82.32
2024-01-11T00:29:52.054Z,82.41
2024-01-11T00:32:00.874Z,82.38
2024-01-11T00:34:09.983Z,82.21
2024-01-11T00:36:22.793Z,82.34
2024-01-11T00:38:31.681Z,81.89
2024-01-11T00:40:40.413Z,82.00
2024-01-11T00:42:49.220Z,81.96
2024-01-11T00:44:57.921Z,82.11
2024-01-11T00:47:07.090Z,82.09
2024-01-11T00:49:15.865Z,82.01
2024-01-11T00:51:24.766Z,82.00
2024-01-11T00:53:34.686Z,81.84
2024-01-11T00:55:43.578Z,81.79
2024-01-11T00:57:52.863Z,81.83
2024-01-11T01:00:01.782Z,81.78
2024-01-11T01:02:10.732Z,81.81
2024-01-11T01:04:19.788Z,81.89
2024-01-11T01:06:28.832Z,81.73
2024-01-11T01:08:37.955Z,81.52
2024-01-11T01:10:46.628Z,81.45
2024-01-11T01:12:55.477Z,81.49
2024-01-11T01:15:04.437Z,81.64
2024-01-11T01:17:16.063Z,81.53
2024-01-11T01:19:25.622Z,81.61
2024-01-11T01:21:34.390Z,81.43
2024-01-11T01:23:43.288Z,81.38
2024-01-11T01:25:52.601Z,81.47
2024-01-11T01:28:02.130Z,81.35
2024-01-11T01:30:12.188Z,81.52
2024-01-11T01:32:21.030Z,81.38
2024-01-11T01:34:30.021Z,81.35
2024-01-11T01:36:38.982Z,81.36
2024-01-11T01:38:47.908Z,81.27
2024-01-11T01:40:56.625Z,81.39
2024-01-11T01:43:09.111Z,81.40
2024-01-11T01:45:19.515Z,81.51
2024-01-11T01:47:29.261Z,81.22
2024-01-11T01:49:38.642Z,81.30
2024-01-11T01:51:47.521Z,81.34
2024-01-11T01:53:59.185Z,81.40
2024-01-11T01:56:09.887Z,81.44
2024-01-11T01:58:20.146Z,81.31
2024-01-11T02:00:29.503Z,81.35
2024-01-11T02:02:40.569Z,81.08
2024-01-11T02:04:49.811Z,81.23
2024-01-11T02:07:00.259Z,81.10
2024-01-11T02:09:10.938Z,81.04
2024-01-11T02:11:20.314Z,81.33
2024-01-11T02:13:29.692Z,81.19
2024-01-11T02:15:39.182Z,81.12
2024-01-11T02:17:48.119Z,81.12
2024-01-11T02:19:57.043Z,81.03
2024-01-11T02:22:13.166Z,80.97
2024-01-11T02:24:22.203Z,81.16
2024-01-11T02:26:30.927Z,81.12
2024-01-11T02:28:39.762Z,81.05
2024-01-11T02:30:48.635Z,81.02
2024-01-11T02:32:58.607Z,81.01
2024-01-11T02:35:08.930Z,80.75
2024-01-11T02:37:17.680Z,80.88
2024-01-11T02:39:27.392Z,81.12
2024-01-11T02:41:37.853Z,81.01
2024-01-11T02:43:50.994Z,81.02
2024-01-11T02:46:00.527Z,80.84
2024-01-11T02:48:10.314Z,80.89
2024-01-11T02:50:19.177Z,80.92
2024-01-11T02:52:28.166Z,80.83
2024-01-11T02:54:37.061Z,80.92
2024-01-11T02:56:45.808Z,80.99
2024-01-11T02:58:54.954Z,81.01
2024-01-11T03:01:03.908Z,80.81
2024-01-11T03:03:12.959Z,80.65
2024-01-11T03:05:21.894Z,80.74
2024-01-11T03:07:31.599Z,80.88
2024-01-11T03:09:40.636Z,80.99
2024-01-11T03:11:49.381Z,80.95
2024-01-11T03:13:58.078Z,80.98
2024-01-11T03:16:08.770Z,80.88
2024-01-11T03:18:17.761Z,80.81
2024-01-11T03:20:26.841Z,80.84
2024-01-11T03:22:35.644Z,80.77
2024-01-11T03:24:44.393Z,80.90
2024-01-11T03:26:53.252Z,81.27
2024-01-11T03:29:01.986Z,81.08
2024-01-11T03:35:31.615Z,81.29
2024-01-11T03:37:40.501Z,81.23
2024-01-11T03:39:49.368Z,81.18
2024-01-11T03:41:58.220Z,81.46
2024-01-11T03:44:07.648Z,81.35
2024-01-11T03:46:16.557Z,81.25
2024-01-11T03:48:25.424Z,81.42
2024-01-11T03:50:34.283Z,81.50
2024-01-11T03:52:43.046Z,81.67
2024-01-11T03:54:52.016Z,81.78
2024-01-11T03:57:00.715Z,81.65
2024-01-11T03:59:09.778Z,81.60
2024-01-11T04:01:18.926Z,81.75
2024-01-11T04:03:27.746Z,81.54
2024-01-11T04:05:36.696Z,81.61
2024-01-11T04:07:45.627Z,81.59
2024-01-11T04:09:54.387Z,81.64
2024-01-11T04:12:04.845Z,81.48
2024-01-11T04:14:13.765Z,81.68
2024-01-11T04:16:23.071Z,81.69
2024-01-11T04:18:31.976Z,81.80
2024-01-11T04:20:40.849Z,81.77
2024-01-11T04:22:49.689Z,81.73
2024-01-11T04:24:58.422Z,81.68
2024-01-11T04:27:07.358Z,81.64
2024-01-11T04:29:16.315Z,81.55
2024-01-11T04:31:25.429Z,81.86
2024-01-11T04:33:34.463Z,81.68
2024-01-11T04:35:43.570Z,81.92
2024-01-11T04:37:52.487Z,81.78
2024-01-11T04:40:01.527Z,81.74
2024-01-11T04:42:10.381Z,81.52
2024-01-11T04:44:19.189Z,81.54
2024-01-11T04:46:28.085Z,81.83
2024-01-11T04:48:37.000Z,81.83
2024-01-11T04:50:46.853Z,81.73
2024-01-11T04:52:55.652Z,81.69
2024-01-11T04:55:04.697Z,81.47
2024-01-11T04:57:13.570Z,81.61
2024-01-11T04:59:22.498Z,81.57
2024-01-11T05:01:31.439Z,81.63
2024-01-11T05:03:40.385Z,81.69
2024-01-11T05:05:49.330Z,81.68
2024-01-11T05:07:58.366Z,81.51
2024-01-11T05:10:08.211Z,81.74
2024-01-11T05:12:17.503Z,81.60
2024-01-11T05:14:26.407Z,81.67
2024-01-11T05:16:36.794Z,81.93
2024-01-11T05:18:45.691Z,81.52
2024-01-11T05:20:54.588Z,81.48
2024-01-11T05:23:03.314Z,81.44
2024-01-11T05:25:12.470Z,81.48
2024-01-11T05:27:21.117Z,81.62
2024-01-11T05:29:29.997Z,81.57
2024-01-11T05:31:39.229Z,81.50
2024-01-11T05:33:48.834Z,81.39
2024-01-11T05:35:58.432Z,81.40
2024-01-11T05:38:07.540Z,81.28
2024-01-11T05:40:16.692Z,81.16
2024-01-11T05:42:25.791Z,81.38
2024-01-11T05:44:34.837Z,81.33
2024-01-11T05:46:43.527Z,81.34
2024-01-11T05:48:52.300Z,81.33
2024-01-11T05:51:01.089Z,81.25
2024-01-11T05:53:09.920Z,81.10
2024-01-11T05:55:19.242Z,81.24
2024-01-11T05:57:28.051Z,81.06
2024-01-11T05:59:36.868Z,81.16
2024-01-11T06:01:48.771Z,81.18
2024-01-11T06:03:57.599Z,81.34
2024-01-11T06:06:08.361Z,81.13
2024-01-11T06:08:18.323Z,81.15
2024-01-11T06:10:26.940Z,81.04
2024-01-11T06:12:35.664Z,80.95
2024-01-11T06:14:44.331Z,81.11
2024-01-11T06:16:52.951Z,81.22
2024-01-11T06:19:01.966Z,81.07
2024-01-11T06:21:10.598Z,80.93
2024-01-11T06:23:20.907Z,80.82
2024-01-11T06:25:29.630Z,80.72
2024-01-11T06:27:38.281Z,80.77
2024-01-11T06:29:47.113Z,80.80
2024-01-11T06:31:55.856Z,80.76
2024-01-11T06:34:04.641Z,80.73
2024-01-11T06:36:13.321Z,80.59
2024-01-11T06:38:21.953Z,80.51
2024-01-11T06:40:30.543Z,80.53
2024-01-11T06:42:39.179Z,80.58
2024-01-11T06:44:48.188Z,80.54
2024-01-11T06:46:56.856Z,80.59
2024-01-11T06:49:05.591Z,80.80
2024-01-11T06:51:16.629Z,80.42
2024-01-11T06:53:25.559Z,80.51
2024-01-11T06:55:34.481Z,80.31
2024-01-11T06:57:43.037Z,80.54
2024-01-11T06:59:52.269Z,80.73
2024-01-11T07:02:01.071Z,80.64
2024-01-11T07:04:09.993Z,80.74
2024-01-11T07:06:19.093Z,80.43
2024-01-11T07:08:27.910Z,80.52
2024-01-11T07:10:36.654Z,80.52
2024-01-11T07:12:47.057Z,80.52
2024-01-11T07:14:55.737Z,80.51
2024-01-11T07:17:05.377Z,80.79
2024-01-11T07:19:14.524Z,80.73
2024-01-11T07:21:31.189Z,80.76
2024-01-11T07:23:40.269Z,80.72
2024-01-11T07:25:49.200Z,80.65
2024-01-11T07:27:57.981Z,80.90
2024-01-11T07:30:08.096Z,81.00
2024-01-11T07:32:16.999Z,81.11
2024-01-11T07:34:26.258Z,81.16
2024-01-11T07:36:35.073Z,81.07
2024-01-11T07:38:43.703Z,81.16
2024-01-11T07:40:52.611Z,81.33
2024-01-11T07:43:01.379Z,81.21
2024-01-11T07:45:12.477Z,81.27
2024-01-11T07:47:21.101Z,81.04
2024-01-11T07:49:29.851Z,80.94
2024-01-11T07:51:40.221Z,81.11
2024-01-11T07:53:49.087Z,81.18
2024-01-11T07:55:57.972Z,81.02
2024-01-11T07:58:06.936Z,81.16
2024-01-11T08:00:16.577Z,81.06
2024-01-11T08:02:25.621Z,81.01
2024-01-11T08:04:34.813Z,81.12
2024-01-11T08:06:43.749Z,81.14
2024-01-11T08:08:54.259Z,81.20
2024-01-11T08:11:03.558Z,81.15
2024-01-11T08:13:14.192Z,80.98
2024-01-11T08:15:23.097Z,80.99
2024-01-11T08:17:31.988Z,80.88
2024-01-11T08:19:41.135Z,80.92
2024-01-11T08:21:49.914Z,80.84
2024-01-11T08:24:01.932Z,81.00
2024-01-11T08:26:12.452Z,81.04
2024-01-11T08:28:21.947Z,80.98
2024-01-11T08:30:31.097Z,81.07
2024-01-11T08:32:41.103Z,80.92
2024-01-11T08:34:50.114Z,80.80
2024-01-11T08:36:59.378Z,80.66
2024-01-11T08:39:08.589Z,80.93
2024-01-11T08:41:17.219Z,80.81
2024-01-11T08:43:26.062Z,80.52
2024-01-11T08:45:34.795Z,80.28
2024-01-11T08:47:43.596Z,80.33
2024-01-11T08:49:52.589Z,80.30
2024-01-11T08:52:01.244Z,80.24
2024-01-11T08:54:12.641Z,80.34
2024-01-11T08:56:21.547Z,80.16
2024-01-11T08:58:30.386Z,80.05
2024-01-11T09:00:39.642Z,80.09
2024-01-11T09:02:49.509Z,80.04
2024-01-11T09:04:58.358Z,80.43
2024-01-11T09:07:07.352Z,80.72
2024-01-11T09:09:16.762Z,79.59
2024-01-11T09:11:25.407Z,78.83
2024-01-11T09:13:33.989Z,78.44
2024-01-11T09:15:42.921Z,78.39
2024-01-11T09:17:52.001Z,78.09
2024-01-11T09:20:01.148Z,77.61
2024-01-11T09:22:11.511Z,77.71
2024-01-11T09:24:20.778Z,77.67
2024-01-11T09:26:29.669Z,77.17
2024-01-11T09:28:38.393Z,76.83
2024-01-11T09:30:47.281Z,77.04
2024-01-11T09:32:57.073Z,77.03
2024-01-11T09:35:06.926Z,77.06
2024-01-11T09:37:15.724Z,76.68
2024-01-11T09:39:24.868Z,76.61
2024-01-11T09:41:35.288Z,76.43
2024-01-11T09:43:44.761Z,75.82
2024-01-11T09:45:55.147Z,76.31
2024-01-11T09:48:04.449Z,76.24
2024-01-11T09:50:18.758Z,75.60
2024-01-11T09:52:34.355Z,74.85
2024-01-11T09:54:46.917Z,74.03
2024-01-11T09:57:00.576Z,74.24
2024-01-11T09:59:11.947Z,73.84
2024-01-11T10:01:23.249Z,74.11
2024-01-11T10:03:32.679Z,74.03
2024-01-11T10:05:43.054Z,74.20
2024-01-11T10:07:52.035Z,74.29
2024-01-11T10:10:01.604Z,74.86
2024-01-11T10:12:11.618Z,74.59
2024-01-11T10:14:20.415Z,74.47
2024-01-11T10:16:30.019Z,74.57
2024-01-11T10:18:39.234Z,73.86
2024-01-11T10:20:50.544Z,73.67
2024-01-11T10:23:00.777Z,74.13
2024-01-11T10:25:17.152Z,74.53
2024-01-11T10:27:30.117Z,74.94
2024-01-11T10:29:39.369Z,75.03
2024-01-11T10:31:48.060Z,74.99
2024-01-11T10:33:59.554Z,75.06
2024-01-11T10:36:11.267Z,75.26
2024-01-11T10:38:20.681Z,75.19
2024-01-11T10:40:31.045Z,75.28
2024-01-11T10:42:42.221Z,75.37
2024-01-11T10:44:57.181Z,75.33
2024-01-11T10:47:08.770Z,75.25
2024-01-11T10:49:21.308Z,75.37
2024-01-11T10:51:34.588Z,75.47
2024-01-11T10:53:47.515Z,75.74
2024-01-11T10:56:13.688Z,75.42
2024-01-11T10:58:24.624Z,75.64
2024-01-11T11:00:33.838Z,75.68
2024-01-11T11:02:44.272Z,75.67
2024-01-11T11:04:57.306Z,75.33
2024-01-11T11:07:08.541Z,75.51
2024-01-11T11:09:18.846Z,75.49
2024-01-11T11:11:28.082Z,75.61
2024-01-11T11:13:38.102Z,75.55
2024-01-11T11:15:50.109Z,75.66
2024-01-11T11:18:00.396Z,75.65
2024-01-11T11:20:13.232Z,75.82
2024-01-11T11:22:21.942Z,75.71
2024-01-11T11:24:30.930Z,75.94
2024-01-11T11:26:39.495Z,76.23
2024-01-11T11:28:49.612Z,76.22
2024-01-11T11:31:04.271Z,76.13
2024-01-11T11:33:14.045Z,76.37
2024-01-11T11:35:24.998Z,76.11
2024-01-11T11:37:34.275Z,76.20
2024-01-11T11:39:44.077Z,76.11
2024-01-11T11:41:53.999Z,76.25
2024-01-11T11:44:06.659Z,76.42
2024-01-11T11:46:16.396Z,76.31
2024-01-11T11:48:55.903Z,76.43
2024-01-11T11:51:11.473Z,76.52
2024-01-11T11:53:20.922Z,76.73
2024-01-11T11:55:29.641Z,76.69
2024-01-11T11:57:38.892Z,76.83
2024-01-11T11:59:47.925Z,76.82
2024-01-11T12:01:56.863Z,76.74
2024-01-11T12:04:05.545Z,76.74
2024-01-11T12:06:16.069Z,76.71
2024-01-11T12:08:25.317Z,76.77
2024-01-11T12:10:34.360Z,76.90
2024-01-11T12:12:43.282Z,77.21
2024-01-11T12:14:52.271Z,76.85
2024-01-11T12:17:01.622Z,76.56
2024-01-11T12:19:11.113Z,76.23
2024-01-11T12:21:19.762Z,76.26
2024-01-11T12:23:31.252Z,75.89
2024-01-11T12:25:40.860Z,75.55
2024-01-11T12:27:50.232Z,75.16
2024-01-11T12:29:59.902Z,75.00
2024-01-11T12:32:13.295Z,74.70
2024-01-11T12:34:22.485Z,75.23
2024-01-11T12:36:32.641Z,75.24
2024-01-11T12:38:51.969Z,75.57
2024-01-11T12:41:02.730Z,75.45
2024-01-11T12:43:13.732Z,75.58
2024-01-11T12:45:23.655Z,75.58
2024-01-11T12:47:32.298Z,75.83
2024-01-11T12:49:45.993Z,75.96
2024-01-11T12:51:56.147Z,75.89
2024-01-11T12:54:08.570Z,76.34
2024-01-11T12:56:18.544Z,76.41
2024-01-11T12:58:28.073Z,76.44
2024-01-11T13:00:37.665Z,76.21
2024-01-11T13:02:47.714Z,76.44
2024-01-11T13:04:57.039Z,76.68
2024-01-11T13:07:06.311Z,76.72
2024-01-11T13:09:15.640Z,76.69
2024-01-11T13:11:25.681Z,76.68
2024-01-11T13:13:34.479Z,76.78
2024-01-11T13:15:43.362Z,76.92
2024-01-11T13:17:52.304Z,77.13
2024-01-11T13:20:02.696Z,77.17
2024-01-11T13:22:11.469Z,77.35
2024-01-11T13:24:20.024Z,77.39
2024-01-11T13:26:28.850Z,77.44
2024-01-11T13:28:37.886Z,77.61
2024-01-11T13:30:47.972Z,77.65
2024-01-11T13:32:56.796Z,77.73
2024-01-11T13:35:06.934Z,77.99
2024-01-11T13:37:16.692Z,78.23
2024-01-11T13:39:26.730Z,78.20
2024-01-11T13:41:35.625Z,78.19
2024-01-11T13:43:44.557Z,78.14
2024-01-11T13:45:53.456Z,78.22
2024-01-11T13:48:03.202Z,78.35
2024-01-11T13:50:13.925Z,78.48
2024-01-11T13:52:22.876Z,78.58
2024-01-11T13:54:31.664Z,78.55
2024-01-11T13:56:40.578Z,78.44
2024-01-11T13:58:49.345Z,78.58
2024-01-11T14:00:58.704Z,78.53
2024-01-11T14:03:10.093Z,78.74
2024-01-11T14:05:19.933Z,78.80
2024-01-11T14:07:28.809Z,78.67
2024-01-11T14:09:37.448Z,78.52
2024-01-11T14:11:46.203Z,78.51
2024-01-11T14:13:57.212Z,78.76
2024-01-11T14:16:06.614Z,78.46
2024-01-11T14:18:15.538Z,78.38
2024-01-11T14:20:25.031Z,78.32
2024-01-11T14:22:33.748Z,78.23
2024-01-11T14:24:42.677Z,78.15
2024-01-11T14:26:51.717Z,78.21
2024-01-11T14:29:00.476Z,78.19
2024-01-11T14:31:09.394Z,77.89
2024-01-11T14:33:18.906Z,77.89
2024-01-11T14:35:28.031Z,77.84
2024-01-11T14:37:37.718Z,77.82
2024-01-11T14:39:46.408Z,77.84
2024-01-11T14:41:56.530Z,77.78
2024-01-11T14:44:05.282Z,77.98
2024-01-11T14:46:14.572Z,77.99
2024-01-11T14:48:24.864Z,77.76
2024-01-11T14:50:33.986Z,77.68
2024-01-11T14:52:44.052Z,77.68
2024-01-11T14:54:55.899Z,77.59
2024-01-11T14:57:06.198Z,77.71
2024-01-11T14:59:15.461Z,77.72
2024-01-11T15:01:24.561Z,77.50
2024-01-11T15:03:33.373Z,77.44
2024-01-11T15:05:42.285Z,77.35
2024-01-11T15:07:51.404Z,77.39
2024-01-11T15:10:00.370Z,77.30
2024-01-11T15:12:10.227Z,77.00
2024-01-11T15:14:18.781Z,77.16
2024-01-11T15:16:27.561Z,77.16
2024-01-11T15:18:36.284Z,76.87
2024-01-11T15:20:45.146Z,76.51
2024-01-11T15:22:53.661Z,76.35
2024-01-11T15:25:02.552Z,76.45
2024-01-11T15:27:11.666Z,76.27
2024-01-11T15:29:20.887Z,76.40
2024-01-11T15:31:32.494Z,76.17
2024-01-11T15:33:41.573Z,76.24
2024-01-11T15:35:50.518Z,76.31
2024-01-11T15:37:59.286Z,76.38
2024-01-11T15:40:10.128Z,76.39
2024-01-11T15:42:18.661Z,76.23
2024-01-11T15:44:29.077Z,76.12
2024-01-11T15:46:39.645Z,76.16
2024-01-11T15:48:48.269Z,76.24
2024-01-11T15:50:58.685Z,76.44
2024-01-11T15:53:08.376Z,76.78
2024-01-11T15:55:18.002Z,76.73
2024-01-11T15:57:26.561Z,76.89
2024-01-11T15:59:35.312Z,76.80
2024-01-11T16:01:51.747Z,76.80
2024-01-11T16:04:09.306Z,76.69
2024-01-11T16:06:19.168Z,76.91
2024-01-11T16:08:27.881Z,76.65
2024-01-11T16:10:36.496Z,76.72
2024-01-11T16:12:45.357Z,76.51
2024-01-11T16:14:55.180Z,76.52
2024-01-11T16:17:04.291Z,76.29
2024-01-11T16:19:13.350Z,76.13
2024-01-11T16:21:22.045Z,75.94
2024-01-11T16:23:30.663Z,75.83
2024-01-11T16:25:39.224Z,76.07
2024-01-11T16:27:48.187Z,75.86
2024-01-11T16:29:58.029Z,75.82
2024-01-11T16:32:07.825Z,75.54
2024-01-11T16:34:16.516Z,75.55
2024-01-11T16:36:25.480Z,75.73
2024-01-11T16:38:36.999Z,75.78
2024-01-11T16:40:45.684Z,75.67
2024-01-11T16:42:54.298Z,75.48
2024-01-11T16:45:05.770Z,75.25
2024-01-11T16:47:14.391Z,75.13
2024-01-11T16:49:24.684Z,75.09
2024-01-11T16:51:33.952Z,74.84
2024-01-11T16:53:47.372Z,74.71
2024-01-11T16:55:56.467Z,74.80
2024-01-11T16:58:05.948Z,74.83
2024-01-11T17:00:17.269Z,74.70
2024-01-11T17:02:29.050Z,74.65
2024-01-11T17:04:37.760Z,74.37
2024-01-11T17:06:46.439Z,74.37
2024-01-11T17:09:12.691Z,74.38
2024-01-11T17:11:21.813Z,74.19
2024-01-11T17:13:30.517Z,74.12
2024-01-11T17:15:39.642Z,74.18
2024-01-11T17:17:48.641Z,74.33
2024-01-11T17:19:57.523Z,74.08
2024-01-11T17:22:06.461Z,73.92
2024-01-11T17:24:15.311Z,73.92
2024-01-11T17:26:24.418Z,73.96
2024-01-11T17:28:33.009Z,74.19
2024-01-11T17:30:41.633Z,74.26
2024-01-11T17:32:50.251Z,74.28
2024-01-11T17:34:59.348Z,74.31
2024-01-11T17:37:08.216Z,74.30
2024-01-11T17:39:16.758Z,74.31
2024-01-11T17:41:26.242Z,74.15
2024-01-11T17:43:36.534Z,74.04
2024-01-11T17:45:45.772Z,74.19
2024-01-11T17:47:54.993Z,74.17
2024-01-11T17:50:03.963Z,74.00
2024-01-11T17:52:13.322Z,74.02
2024-01-11T17:54:21.832Z,73.74
2024-01-11T17:56:31.737Z,73.73
2024-01-11T17:58:40.618Z,73.65
2024-01-11T18:00:49.172Z,73.55
2024-01-11T18:02:57.801Z,73.70
2024-01-11T18:05:16.653Z,73.72
2024-01-11T18:07:33.364Z,73.59
2024-01-11T18:09:41.937Z,73.49
2024-01-11T18:11:52.458Z,73.51
2024-01-11T18:14:01.545Z,73.30
2024-01-11T18:16:10.223Z,73.40
2024-01-11T18:18:18.837Z,73.49
2024-01-11T18:20:27.514Z,73.23
2024-01-11T18:22:36.426Z,73.44
2024-01-11T18:24:46.590Z,73.24
2024-01-11T18:26:55.634Z,73.13
2024-01-11T18:29:04.520Z,72.88
2024-01-11T18:31:17.456Z,72.75
2024-01-11T18:33:28.162Z,72.49
2024-01-11T18:35:38.520Z,72.51
2024-01-11T18:37:49.168Z,72.30
2024-01-11T18:39:58.516Z,72.03
2024-01-11T18:42:14.416Z,71.85
2024-01-11T18:44:25.752Z,72.04
2024-01-11T18:46:39.118Z,71.79
2024-01-11T18:48:49.878Z,71.41
2024-01-11T18:51:01.279Z,70.95
2024-01-11T18:53:09.933Z,71.06
2024-01-11T18:55:19.176Z,71.18
2024-01-11T18:57:27.791Z,71.04
2024-01-11T18:59:36.444Z,71.09
2024-01-11T19:01:49.814Z,71.41
2024-01-11T19:03:59.615Z,71.54
2024-01-11T19:06:10.192Z,71.45
2024-01-11T19:08:19.184Z,71.29
2024-01-11T19:10:28.930Z,71.31
2024-01-11T19:12:37.923Z,71.42
2024-01-11T19:14:46.854Z,71.56
2024-01-11T19:16:55.701Z,71.76
2024-01-11T19:19:05.569Z,71.60
2024-01-11T19:21:17.284Z,71.57
2024-01-11T19:23:41.244Z,71.48
2024-01-11T19:25:49.028Z,71.58
2024-01-11T19:28:00.999Z,71.51
2024-01-11T19:30:11.888Z,71.67
2024-01-11T19:32:22.228Z,71.71
2024-01-11T19:34:31.008Z,71.66
2024-01-11T19:36:44.366Z,71.37
2024-01-11T19:39:02.141Z,70.90
2024-01-11T19:41:11.337Z,70.30
2024-01-11T19:43:20.376Z,69.57
2024-01-11T19:45:29.578Z,69.40
2024-01-11T19:47:41.276Z,68.96
2024-01-11T19:49:50.532Z,68.99
2024-01-11T19:51:59.282Z,68.96
2024-01-11T19:54:08.458Z,68.99
2024-01-11T19:56:21.790Z,69.01
2024-01-11T19:58:30.767Z,69.01
2024-01-11T20:00:42.692Z,69.19
2024-01-11T20:02:52.226Z,68.88
2024-01-11T20:05:01.981Z,69.23
2024-01-11T20:07:10.652Z,69.61
2024-01-11T20:09:21.329Z,69.62
2024-01-11T20:11:35.590Z,69.93
2024-01-11T20:13:45.622Z,70.05
2024-01-11T20:15:54.474Z,69.73
2024-01-11T20:18:09.708Z,69.95
2024-01-11T20:20:19.798Z,69.88
2024-01-11T20:22:29.537Z,69.72
2024-01-11T20:24:43.649Z,69.67
2024-01-11T20:27:05.700Z,69.85
2024-01-11T20:29:15.660Z,69.73
2024-01-11T20:31:27.558Z,69.56
2024-01-11T20:33:39.827Z,69.36
2024-01-11T20:35:52.411Z,68.82
2024-01-11T20:38:02.092Z,68.88
2024-01-11T20:40:16.547Z,68.44
2024-01-11T20:42:26.974Z,68.25
2024-01-11T20:44:37.758Z,67.92
2024-01-11T20:46:50.497Z,67.06
2024-01-11T20:49:05.202Z,66.78
2024-01-11T20:51:19.214Z,66.08
2024-01-11T20:53:28.067Z,66.01
2024-01-11T20:55:36.726Z,65.78
2024-01-11T20:57:47.741Z,66.09
2024-01-11T21:00:02.235Z,66.19
2024-01-11T21:02:11.999Z,66.47
2024-01-11T21:04:22.481Z,66.81
2024-01-11T21:06:33.004Z,66.85
2024-01-11T21:08:41.847Z,66.80
2024-01-11T21:10:50.433Z,65.97
2024-01-11T21:12:59.114Z,66.16
2024-01-11T21:15:09.610Z,66.33
2024-01-11T21:17:20.455Z,66.60
2024-01-11T21:19:29.716Z,65.75
2024-01-11T21:21:48.831Z,64.79
2024-01-11T21:24:00.849Z,64.35
2024-01-11T21:26:10.409Z,64.25
2024-01-11T21:28:19.327Z,64.27
2024-01-11T21:30:28.151Z,63.67
2024-01-11T21:32:36.936Z,63.25
2024-01-11T21:34:45.968Z,63.62
2024-01-11T21:36:54.695Z,63.49
2024-01-11T21:39:04.205Z,63.79
2024-01-11T21:41:13.227Z,63.52
2024-01-11T21:43:23.104Z,63.83
2024-01-11T21:45:31.746Z,64.30
2024-01-11T21:47:40.526Z,64.69
2024-01-11T21:49:49.426Z,64.31
2024-01-11T21:51:58.006Z,64.21
2024-01-11T21:54:07.068Z,64.56
2024-01-11T21:56:16.014Z,65.17
2024-01-11T21:58:25.577Z,65.11
2024-01-11T22:00:35.809Z,65.21
2024-01-11T22:02:44.687Z,65.49
2024-01-11T22:04:53.802Z,65.44
2024-01-11T22:07:02.372Z,65.61
2024-01-11T22:09:11.504Z,65.44
2024-01-11T22:11:21.633Z,65.56
2024-01-11T22:13:31.570Z,65.39
2024-01-11T22:15:40.433Z,65.22
2024-01-11T22:17:49.169Z,65.09
2024-01-11T22:19:57.903Z,65.34
2024-01-11T22:22:08.245Z,65.36
2024-01-11T22:24:17.796Z,65.01
2024-01-11T22:26:27.832Z,64.79
2024-01-11T22:28:36.652Z,64.98
2024-01-11T22:30:45.346Z,65.02
2024-01-11T22:32:54.235Z,65.04
2024-01-11T22:35:04.572Z,65.34
2024-01-11T22:37:13.358Z,65.49
2024-01-11T22:39:21.949Z,65.40
2024-01-11T22:41:31.139Z,65.25
2024-01-11T22:43:40.092Z,65.15
2024-01-11T22:45:48.838Z,65.22
2024-01-11T22:47:57.484Z,65.48
2024-01-11T22:50:06.669Z,65.56
2024-01-11T22:52:15.244Z,65.15
2024-01-11T22:54:23.842Z,65.49
2024-01-11T22:56:36.249Z,64.99
2024-01-11T22:58:44.920Z,64.69
2024-01-11T23:00:54.345Z,64.86
2024-01-11T23:03:03.049Z,64.40
2024-01-11T23:05:12.230Z,64.34
2024-01-11T23:07:20.914Z,64.13
2024-01-11T23:13:48.969Z,63.78
2024-01-11T23:15:57.730Z,63.46
2024-01-11T23:18:07.285Z,63.73
2024-01-11T23:20:17.259Z,63.70
2024-01-11T23:22:25.965Z,63.58
2024-01-11T23:24:34.498Z,63.64
2024-01-11T23:26:43.077Z,63.95
2024-01-11T23:28:51.672Z,63.45
2024-01-11T23:31:00.543Z,63.60
2024-01-11T23:33:11.365Z,63.59
2024-01-11T23:35:20.320Z,63.66
2024-01-11T23:37:28.917Z,63.73
2024-01-11T23:39:37.842Z,64.01
2024-01-11T23:41:46.398Z,63.96
2024-01-11T23:43:55.535Z,64.23
2024-01-11T23:46:04.663Z,64.44
2024-01-11T23:48:13.322Z,64.57
2024-01-11T23:50:22.514Z,64.79
2024-01-11T23:52:31.469Z,64.88
2024-01-11T23:54:40.046Z,65.37
2024-01-11T23:56:48.678Z,65.62
2024-01-11T23:59:02.127Z,65.79
